Portada
METAR-TAF:

METAR-TAF

Aeroports :

Passo Fundo, Rio Grande do Sul, Brasil

latitud: 28-15S, longitud: 052-24W, altitud: 684 m

Observació

L'informe es va fer fa 42 minuts, a les 17:00 UTC
Vent 9 kt del Sud-Est
Temperatura 28°C
Humitat 27%
Pressió 1014 hPa
Visibilitat 10 km o més
sense núvols per sota de 1500 mi sense presència de cumulonimbus.

METAR: SBPF 171700Z 14009KT CAVOK 28/07 Q1014

Hora: 15:42 (17:42 UTC)


TAF: manca

Observacions i pronòstics meteorològics de més de 4000 aeroports (METAR i TAF).

Les estacions disponibles són els punts grocs i vermells al mapa.

Posi el ratolí al punt desitjat per veure el nom de l'estació.

Feu clic per veure les observacions i els pronòstics meteorològics.

Per canviar el mapa: feu clic els botons verds amb una creu de color negre per apropar; al botó verd amb un guió per allunyar la imatge; o en les fletxes verdes per a mapes adjacents.


METAR-TAF: